createdAt,value
2019-02-25T00:00:48.206Z,-0.41
2019-02-25T00:01:48.193Z,-0.51
2019-02-25T00:02:48.162Z,-0.49
2019-02-25T00:03:47.895Z,-0.51
2019-02-25T00:04:48.128Z,-0.46
2019-02-25T00:05:48.107Z,-0.54
2019-02-25T00:06:48.090Z,-0.49
2019-02-25T00:07:48.072Z,-0.51
2019-02-25T00:08:48.050Z,-0.38
2019-02-25T00:09:48.035Z,-0.51
2019-02-25T00:10:48.012Z,-0.46
2019-02-25T00:11:47.987Z,-0.36
2019-02-25T00:12:47.977Z,-0.48
2019-02-25T00:13:47.954Z,-0.46
2019-02-25T00:14:47.953Z,-0.45
2019-02-25T00:15:47.920Z,-0.48
2019-02-25T00:16:47.650Z,-0.52
2019-02-25T00:17:47.882Z,-0.45
2019-02-25T00:18:47.858Z,-0.45
2019-02-25T00:19:47.352Z,-0.46
2019-02-25T00:20:47.824Z,-0.52
2019-02-25T00:21:47.802Z,-0.45
2019-02-25T00:22:47.789Z,-0.4
2019-02-25T00:23:47.779Z,-0.49
2019-02-25T00:24:47.750Z,-0.43
2019-02-25T00:25:47.476Z,-0.37
2019-02-25T00:26:47.458Z,-0.4
2019-02-25T00:27:47.709Z,-0.38
2019-02-25T00:28:47.669Z,-0.41
2019-02-25T00:29:47.660Z,-0.3
2019-02-25T00:30:47.633Z,-0.3
2019-02-25T00:31:47.369Z,-0.25
2019-02-25T00:32:47.591Z,-0.19
2019-02-25T00:33:47.572Z,-0.16
2019-02-25T00:34:47.556Z,-0.07
2019-02-25T00:35:47.534Z,-0.1
2019-02-25T00:36:47.267Z,-0.13
2019-02-25T00:37:47.500Z,-0.07
2019-02-25T00:38:47.479Z,-0.05
2019-02-25T00:39:47.463Z,-0.07
2019-02-25T00:40:47.454Z,-0.05
2019-02-25T00:41:47.422Z,-0.12
2019-02-25T00:42:47.404Z,-0.07
2019-02-25T00:43:47.440Z,-0.07
2019-02-25T00:44:47.115Z,-0.16
2019-02-25T00:45:47.354Z,-0.13
2019-02-25T00:46:47.342Z,-0.1
2019-02-25T00:47:47.301Z,-0.1
2019-02-25T00:48:47.348Z,-0.13
2019-02-25T00:49:47.272Z,-0.1
2019-02-25T00:50:47.245Z,-0.05
2019-02-25T00:51:47.231Z,-0.15
2019-02-25T00:52:47.213Z,-0.15
2019-02-25T00:53:47.191Z,-0.12
2019-02-25T00:54:47.185Z,-0.15
2019-02-25T00:55:47.153Z,-0.15
2019-02-25T00:56:47.139Z,-0.09
2019-02-25T00:57:46.876Z,-0.15
2019-02-25T00:58:47.093Z,-0.22
2019-02-25T00:59:47.085Z,-0.12
2019-02-25T01:00:47.060Z,-0.25
2019-02-25T01:01:47.051Z,-0.16
2019-02-25T01:02:47.021Z,-0.27
2019-02-25T01:03:47.002Z,-0.22
2019-02-25T01:04:46.982Z,-0.22
2019-02-25T01:05:46.959Z,-0.3
2019-02-25T01:06:46.956Z,-0.23
2019-02-25T01:07:46.924Z,-0.27
2019-02-25T01:08:46.907Z,-0.22
2019-02-25T01:09:46.638Z,-0.15
2019-02-25T01:10:46.867Z,-0.18
2019-02-25T01:11:46.855Z,-0.18
2019-02-25T01:12:46.835Z,-0.1
2019-02-25T01:13:46.809Z,-0.12
2019-02-25T01:14:46.791Z,-0.19
2019-02-25T01:15:46.771Z,-0.09
2019-02-25T01:16:46.753Z,-0.1
2019-02-25T01:17:46.734Z,-0.09
2019-02-25T01:18:46.715Z,-0.12
2019-02-25T01:19:46.446Z,-0.13
2019-02-25T01:20:46.679Z,-0.13
2019-02-25T01:21:46.412Z,-0.09
2019-02-25T01:22:46.636Z,-0.13
2019-02-25T01:23:48.300Z,-0.13
2019-02-25T01:24:46.597Z,-0.15
2019-02-25T01:25:46.582Z,-0.12
2019-02-25T01:26:46.319Z,-0.07
2019-02-25T01:27:46.541Z,-0.05
2019-02-25T01:28:46.525Z,-0.07
2019-02-25T01:29:46.503Z,-0.09
2019-02-25T01:30:46.489Z,-0.1
2019-02-25T01:31:46.468Z,-0.1
2019-02-25T01:32:46.444Z,-0.05
2019-02-25T01:33:46.179Z,0.02
2019-02-25T01:34:46.407Z,0.02
2019-02-25T01:35:46.397Z,-0.01
2019-02-25T01:36:46.375Z,0.02
2019-02-25T01:37:46.105Z,-0.01
2019-02-25T01:38:46.339Z,-0.18
2019-02-25T01:39:46.322Z,-0.1
2019-02-25T01:40:46.298Z,-0.05
2019-02-25T01:41:46.272Z,-0.13
2019-02-25T01:42:46.327Z,-0.09
2019-02-25T01:43:46.236Z,-0.09
2019-02-25T01:44:46.224Z,-0.09
2019-02-25T01:45:46.206Z,-0.16
2019-02-25T01:46:46.180Z,-0.16
2019-02-25T01:47:46.162Z,-0.1
2019-02-25T01:48:46.140Z,-0.12
2019-02-25T01:49:46.129Z,-0.09
2019-02-25T01:50:46.101Z,-0.1
2019-02-25T01:51:45.836Z,-0.09
2019-02-25T01:52:45.811Z,-0.12
2019-02-25T01:53:46.045Z,-0.05
2019-02-25T01:54:46.033Z,-0.13
2019-02-25T01:55:46.004Z,-0.2
2019-02-25T01:56:45.987Z,-0.05
2019-02-25T01:57:45.969Z,-0.04
2019-02-25T01:58:45.952Z,-0.12
2019-02-25T01:59:45.929Z,-0.09
2019-02-25T02:00:45.924Z,-0.07
2019-02-25T02:01:45.888Z,-0.1
2019-02-25T02:02:45.878Z,-0.12
2019-02-25T02:03:45.606Z,-0.09
2019-02-25T02:04:45.833Z,-0.05
2019-02-25T02:05:45.823Z,-0.04
2019-02-25T02:06:45.795Z,0.01
2019-02-25T02:07:45.786Z,-0.01
2019-02-25T02:08:45.759Z,0.01
2019-02-25T02:09:45.892Z,-0.04
2019-02-25T02:10:45.724Z,0.01
2019-02-25T02:11:45.700Z,0.05
2019-02-25T02:12:45.698Z,0.05
2019-02-25T02:13:45.412Z,0.05
2019-02-25T02:14:45.650Z,0.13
2019-02-25T02:15:45.629Z,0.09
2019-02-25T02:16:45.365Z,0.08
2019-02-25T02:17:45.584Z,0.13
2019-02-25T02:18:45.565Z,0.06
2019-02-25T02:19:45.554Z,0.05
2019-02-25T02:20:45.529Z,0.06
2019-02-25T02:21:45.516Z,0.03
2019-02-25T02:22:45.488Z,0.02
2019-02-25T02:23:45.475Z,0.02
2019-02-25T02:24:45.453Z,0.02
2019-02-25T02:25:45.430Z,0.09
2019-02-25T02:26:45.412Z,0.06
2019-02-25T02:27:45.439Z,0.08
2019-02-25T02:28:45.380Z,-0.01
2019-02-25T02:29:45.110Z,0.1
2019-02-25T02:30:45.337Z,0.14
2019-02-25T02:31:45.081Z,0.09
2019-02-25T02:32:45.309Z,0.2
2019-02-25T02:33:45.325Z,0.13
2019-02-25T02:34:45.268Z,0.14
2019-02-25T02:35:45.252Z,0.06
2019-02-25T02:36:44.978Z,0.16
2019-02-25T02:37:45.205Z,0.14
2019-02-25T02:38:45.217Z,0.13
2019-02-25T02:39:45.178Z,0.09
2019-02-25T02:40:45.151Z,0.17
2019-02-25T02:41:45.127Z,0.16
2019-02-25T02:42:45.124Z,0.16
2019-02-25T02:43:45.091Z,0.21
2019-02-25T02:44:45.073Z,0.19
2019-02-25T02:45:45.060Z,0.2
2019-02-25T02:46:45.040Z,0.21
2019-02-25T02:47:45.053Z,0.17
2019-02-25T02:48:44.745Z,0.26
2019-02-25T02:49:45.042Z,0.17
2019-02-25T02:50:44.960Z,0.2
2019-02-25T02:51:44.950Z,0.19
2019-02-25T02:52:44.926Z,0.14
2019-02-25T02:53:44.904Z,0.13
2019-02-25T02:54:44.894Z,0.2
2019-02-25T02:55:44.995Z,0.09
2019-02-25T02:56:44.843Z,0.17
2019-02-25T02:57:44.828Z,0.19
2019-02-25T02:58:44.810Z,0.2
2019-02-25T02:59:44.547Z,0.2
2019-02-25T03:00:44.766Z,0.17
2019-02-25T03:01:44.750Z,0.16
2019-02-25T03:02:44.729Z,0.14
2019-02-25T03:03:44.462Z,0.13
2019-02-25T03:04:44.695Z,0.1
2019-02-25T03:05:44.683Z,0.14
2019-02-25T03:06:44.654Z,0.19
2019-02-25T03:07:44.636Z,0.13
2019-02-25T03:08:44.617Z,0.08
2019-02-25T03:09:44.605Z,0.08
2019-02-25T03:10:44.575Z,0.14
2019-02-25T03:11:44.560Z,0.09
2019-02-25T03:12:44.548Z,0.1
2019-02-25T03:13:44.525Z,0.13
2019-02-25T03:14:44.505Z,0.05
2019-02-25T03:15:44.484Z,0.02
2019-02-25T03:16:44.480Z,0.09
2019-02-25T03:17:44.195Z,0.14
2019-02-25T03:18:44.425Z,0.09
2019-02-25T03:19:44.408Z,-0.04
2019-02-25T03:20:44.389Z,0.1
2019-02-25T03:21:44.367Z,0.14
2019-02-25T03:22:44.098Z,0.05
2019-02-25T03:23:44.092Z,0.05
2019-02-25T03:24:44.315Z,0.1
2019-02-25T03:25:44.291Z,0.13
2019-02-25T03:26:44.284Z,0.08
2019-02-25T03:27:44.254Z,0.14
2019-02-25T03:28:43.998Z,0.09
2019-02-25T03:29:43.723Z,0.1
2019-02-25T03:30:44.215Z,0.13
2019-02-25T03:31:43.968Z,0.13
2019-02-25T03:32:44.173Z,0.14
2019-02-25T03:33:44.163Z,0.13
2019-02-25T03:34:44.136Z,0.06
2019-02-25T03:35:44.107Z,0.14
2019-02-25T03:36:44.085Z,0.1
2019-02-25T03:37:44.080Z,0.06
2019-02-25T03:38:44.048Z,0.17
2019-02-25T03:39:44.035Z,0.14
2019-02-25T03:40:43.765Z,0.05
2019-02-25T03:41:43.989Z,0.08
2019-02-25T03:42:43.970Z,0.17
2019-02-25T03:43:43.959Z,0.14
2019-02-25T03:44:43.937Z,0.16
2019-02-25T03:45:43.966Z,0.06
2019-02-25T03:46:43.902Z,0.1
2019-02-25T03:47:43.879Z,0.13
2019-02-25T03:48:43.858Z,0.09
2019-02-25T03:49:43.838Z,0.02
2019-02-25T03:50:43.966Z,0.01
2019-02-25T03:51:43.803Z,0.03
2019-02-25T03:52:43.838Z,0.06
2019-02-25T03:53:43.766Z,0.02
2019-02-25T03:54:43.498Z,0.03
2019-02-25T03:55:43.723Z,0.01
2019-02-25T03:56:43.702Z,-0.01
2019-02-25T03:57:43.446Z,-0.01
2019-02-25T03:58:43.675Z,-0.13
2019-02-25T03:59:43.646Z,-0.16
2019-02-25T04:00:43.628Z,-0.1
2019-02-25T04:01:43.640Z,-0.13
2019-02-25T04:02:43.599Z,-0.07
2019-02-25T04:03:43.566Z,-0.12
2019-02-25T04:04:43.630Z,-0.15
2019-02-25T04:05:43.538Z,-0.09
2019-02-25T04:06:43.529Z,-0.12
2019-02-25T04:07:43.498Z,-0.15
2019-02-25T04:08:43.482Z,-0.1
2019-02-25T04:09:43.471Z,-0.18
2019-02-25T04:10:43.439Z,-0.28
2019-02-25T04:11:43.174Z,-0.15
2019-02-25T04:12:43.401Z,-0.2
2019-02-25T04:13:43.375Z,-0.2
2019-02-25T04:14:43.366Z,-0.2
2019-02-25T04:15:43.342Z,-0.22
2019-02-25T04:16:43.083Z,-0.22
2019-02-25T04:17:43.316Z,-0.23
2019-02-25T04:18:43.284Z,-0.19
2019-02-25T04:19:43.276Z,-0.25
2019-02-25T04:20:43.244Z,-0.31
2019-02-25T04:21:43.233Z,-0.23
2019-02-25T04:22:43.232Z,-0.3
2019-02-25T04:23:43.192Z,-0.36
2019-02-25T04:24:42.916Z,-0.23
2019-02-25T04:25:43.149Z,-0.28
2019-02-25T04:26:43.137Z,-0.25
2019-02-25T04:27:43.135Z,-0.28
2019-02-25T04:28:42.848Z,-0.31
2019-02-25T04:29:43.078Z,-0.37
2019-02-25T04:30:42.821Z,-0.38
2019-02-25T04:31:43.046Z,-0.4
2019-02-25T04:32:43.021Z,-0.37
2019-02-25T04:33:42.999Z,-0.4
2019-02-25T04:34:42.981Z,-0.45
2019-02-25T04:35:42.994Z,-0.54
2019-02-25T04:36:42.951Z,-0.49
2019-02-25T04:37:42.737Z,-0.49
2019-02-25T04:38:42.906Z,-0.48
2019-02-25T04:39:42.934Z,-0.45
2019-02-25T04:40:42.614Z,-0.48
2019-02-25T04:41:42.849Z,-0.48
2019-02-25T04:42:42.826Z,-0.46
2019-02-25T04:43:42.802Z,-0.51
2019-02-25T04:44:42.790Z,-0.49
2019-02-25T04:45:42.820Z,-0.52
2019-02-25T04:46:42.813Z,-0.45
2019-02-25T04:47:42.747Z,-0.43
2019-02-25T04:48:42.714Z,-0.34
2019-02-25T04:49:42.702Z,-0.36
2019-02-25T04:50:42.684Z,-0.27
2019-02-25T04:51:42.672Z,-0.33
2019-02-25T04:52:42.647Z,-0.3
2019-02-25T04:53:42.618Z,-0.22
2019-02-25T04:54:42.595Z,-0.34
2019-02-25T04:55:42.576Z,-0.34
2019-02-25T04:56:42.559Z,-0.3
2019-02-25T04:57:42.325Z,-0.27
2019-02-25T04:58:42.519Z,-0.3
2019-02-25T04:59:42.503Z,-0.22
2019-02-25T05:00:42.233Z,-0.25
2019-02-25T05:01:42.463Z,-0.18
2019-02-25T05:02:42.449Z,-0.16
2019-02-25T05:03:42.430Z,-0.12
2019-02-25T05:04:42.406Z,-0.16
2019-02-25T05:05:42.481Z,-0.09
2019-02-25T05:06:42.362Z,-0.1
2019-02-25T05:07:42.355Z,-0.1
2019-02-25T05:08:42.337Z,-0.1
2019-02-25T05:09:42.110Z,-0.05
2019-02-25T05:10:42.043Z,-0.1
2019-02-25T05:11:42.271Z,-0.1
2019-02-25T05:12:42.014Z,-0.07
2019-02-25T05:13:41.988Z,-0.09
2019-02-25T05:14:42.214Z,-0.01
2019-02-25T05:15:42.200Z,-0.1
2019-02-25T05:16:42.524Z,-0.13
2019-02-25T05:17:42.157Z,-0.07
2019-02-25T05:18:41.891Z,-0.09
2019-02-25T05:19:42.166Z,-0.01
2019-02-25T05:20:42.096Z,-0.12
2019-02-25T05:21:42.079Z,-0.01
2019-02-25T05:22:42.506Z,-0.07
2019-02-25T05:23:42.049Z,0.02
2019-02-25T05:24:42.028Z,-0.05
2019-02-25T05:25:42.000Z,-0.09
2019-02-25T05:26:41.984Z,-0.07
2019-02-25T05:27:41.972Z,-0.1
2019-02-25T05:28:41.960Z,-0.15
2019-02-25T05:29:41.940Z,-0.12
2019-02-25T05:30:41.906Z,-0.02
2019-02-25T05:31:41.891Z,-0.05
2019-02-25T05:32:41.876Z,-0.07
2019-02-25T05:33:41.846Z,-0.02
2019-02-25T05:34:41.829Z,-0.05
2019-02-25T05:35:41.822Z,-0.04
2019-02-25T05:36:41.794Z,-0.04
2019-02-25T05:37:41.530Z,-0.01
2019-02-25T05:38:41.511Z,-0.01
2019-02-25T05:39:41.732Z,0.01
2019-02-25T05:40:41.727Z,0.03
2019-02-25T05:41:41.712Z,-0.01
2019-02-25T05:42:41.675Z,-0.01
2019-02-25T05:43:41.659Z,-0.01
2019-02-25T05:44:41.644Z,-0.01
2019-02-25T05:45:41.619Z,-0.05
2019-02-25T05:46:41.605Z,0.01
2019-02-25T05:47:41.586Z,0.03
2019-02-25T05:48:41.577Z,0.03
2019-02-25T05:49:41.551Z,0.02
2019-02-25T05:50:41.274Z,-0.01
2019-02-25T05:51:41.507Z,0.02
2019-02-25T05:52:41.483Z,0.02
2019-02-25T05:53:41.473Z,-0.04
2019-02-25T05:54:41.482Z,0.01
2019-02-25T05:55:41.448Z,0.02
2019-02-25T05:56:43.539Z,-0.01
2019-02-25T05:57:41.392Z,-0.04
2019-02-25T05:58:41.386Z,0.01
2019-02-25T05:59:41.109Z,0.01
2019-02-25T06:00:41.334Z,0.05
2019-02-25T06:01:41.313Z,0.08
2019-02-25T06:02:41.291Z,0.1
2019-02-25T06:03:41.275Z,0.13
2019-02-25T06:04:41.272Z,0.16
2019-02-25T06:05:41.240Z,0.17
2019-02-25T06:06:40.976Z,0.14
2019-02-25T06:07:41.199Z,0.13
2019-02-25T06:08:41.178Z,0.09
2019-02-25T06:09:41.160Z,0.1
2019-02-25T06:10:41.142Z,0.1
2019-02-25T06:11:41.126Z,0.1
2019-02-25T06:12:41.105Z,0.1
2019-02-25T06:13:40.835Z,0.14
2019-02-25T06:14:40.824Z,0.13
2019-02-25T06:15:41.045Z,0.14
2019-02-25T06:16:41.027Z,0.16
2019-02-25T06:17:41.010Z,0.13
2019-02-25T06:18:40.990Z,0.19
2019-02-25T06:19:40.967Z,0.17
2019-02-25T06:20:40.951Z,0.2
2019-02-25T06:21:40.687Z,0.2
2019-02-25T06:22:40.964Z,0.21
2019-02-25T06:23:40.889Z,0.17
2019-02-25T06:24:40.633Z,0.16
2019-02-25T06:25:40.855Z,0.2
2019-02-25T06:26:41.230Z,0.19
2019-02-25T06:27:40.563Z,0.26
2019-02-25T06:28:40.805Z,0.27
2019-02-25T06:29:40.776Z,0.2
2019-02-25T06:30:40.762Z,0.28
2019-02-25T06:31:40.749Z,0.34
2019-02-25T06:32:40.717Z,0.44
2019-02-25T06:33:40.708Z,0.39
2019-02-25T06:34:40.683Z,0.42
2019-02-25T06:35:40.673Z,0.48
2019-02-25T06:36:40.658Z,0.44
2019-02-25T06:37:40.417Z,0.5
2019-02-25T06:38:40.610Z,0.52
2019-02-25T06:39:40.606Z,0.52
2019-02-25T06:40:40.567Z,0.61
2019-02-25T06:41:40.303Z,0.52
2019-02-25T06:42:40.529Z,0.63
2019-02-25T06:43:40.513Z,0.47
2019-02-25T06:44:40.499Z,0.58
2019-02-25T06:45:39.983Z,0.64
2019-02-25T06:46:40.455Z,0.6
2019-02-25T06:47:40.435Z,0.67
2019-02-25T06:48:40.567Z,0.74
2019-02-25T06:49:40.398Z,0.71
2019-02-25T06:50:40.136Z,0.82
2019-02-25T06:51:40.372Z,0.76
2019-02-25T06:52:40.099Z,0.84
2019-02-25T06:53:40.326Z,0.84
2019-02-25T06:54:40.064Z,0.94
2019-02-25T06:55:40.289Z,0.89
2019-02-25T06:56:40.265Z,0.96
2019-02-25T06:57:40.251Z,0.97
2019-02-25T06:58:40.237Z,1.02
2019-02-25T06:59:40.224Z,1.04
2019-02-25T07:00:40.202Z,1
2019-02-25T07:01:40.176Z,1.11
2019-02-25T07:02:40.159Z,1.14
2019-02-25T07:03:40.137Z,1.24
2019-02-25T07:04:40.120Z,1.26
2019-02-25T07:05:40.105Z,1.2
2019-02-25T07:06:40.082Z,1.32
2019-02-25T07:07:40.064Z,1.3
2019-02-25T07:08:40.050Z,1.33
2019-02-25T07:09:41.365Z,1.38
2019-02-25T07:10:40.019Z,1.39
2019-02-25T07:11:39.994Z,1.4
2019-02-25T07:12:39.971Z,1.44
2019-02-25T07:13:39.966Z,1.51
2019-02-25T07:14:39.970Z,1.53
2019-02-25T07:15:39.921Z,1.58
2019-02-25T07:16:39.901Z,1.56
2019-02-25T07:17:39.889Z,1.65
2019-02-25T07:18:39.865Z,1.58
2019-02-25T07:19:39.853Z,1.65
2019-02-25T07:20:39.831Z,1.56
2019-02-25T07:21:39.861Z,1.64
2019-02-25T07:22:39.789Z,1.66
2019-02-25T07:23:40.177Z,1.56
2019-02-25T07:24:39.768Z,1.76
2019-02-25T07:25:39.488Z,1.75
2019-02-25T07:26:39.716Z,1.84
2019-02-25T07:27:39.698Z,1.82
2019-02-25T07:28:41.471Z,1.94
2019-02-25T07:29:39.664Z,2.05
2019-02-25T07:30:39.397Z,2.06
2019-02-25T07:31:39.636Z,2.12
2019-02-25T07:32:39.610Z,2.12
2019-02-25T07:33:39.349Z,2.22
2019-02-25T07:34:39.352Z,2.22
2019-02-25T07:35:39.554Z,2.29
2019-02-25T07:36:39.546Z,2.31
2019-02-25T07:37:39.523Z,2.31
2019-02-25T07:38:44.536Z,2.31
2019-02-25T07:39:39.487Z,2.34
2019-02-25T07:40:39.473Z,2.47
2019-02-25T07:41:40.434Z,2.45
2019-02-25T07:42:39.431Z,2.49
2019-02-25T07:43:39.419Z,2.49
2019-02-25T07:44:39.393Z,2.54
2019-02-25T07:45:39.382Z,2.59
2019-02-25T07:46:39.119Z,2.55
2019-02-25T07:47:39.346Z,2.59
2019-02-25T07:48:39.332Z,2.54
2019-02-25T07:49:39.310Z,2.55
2019-02-25T07:50:46.894Z,2.62
2019-02-25T07:51:39.278Z,2.62
2019-02-25T07:52:39.264Z,2.6
2019-02-25T07:53:38.990Z,2.81
2019-02-25T07:54:39.229Z,2.77
2019-02-25T07:55:39.213Z,2.84
2019-02-25T07:56:39.188Z,2.78
2019-02-25T07:57:38.937Z,2.88
2019-02-25T07:58:39.197Z,2.91
2019-02-25T07:59:39.141Z,2.98
2019-02-25T08:00:39.123Z,2.9
2019-02-25T08:01:38.853Z,3.06
2019-02-25T08:02:39.091Z,3.11
2019-02-25T08:03:38.821Z,3.14
2019-02-25T08:04:39.053Z,3.16
2019-02-25T08:05:39.035Z,3.19
2019-02-25T08:06:39.017Z,3.2
2019-02-25T08:07:39.010Z,3.34
2019-02-25T08:08:38.984Z,3.42
2019-02-25T08:09:38.966Z,3.45
2019-02-25T08:10:38.953Z,3.56
2019-02-25T08:11:38.937Z,3.67
2019-02-25T08:12:38.922Z,3.67
2019-02-25T08:13:38.902Z,3.85
2019-02-25T08:14:38.889Z,3.84
2019-02-25T08:15:38.871Z,3.89
2019-02-25T08:16:38.848Z,4.03
2019-02-25T08:17:38.584Z,4.08
2019-02-25T08:18:38.823Z,4.17
2019-02-25T08:19:38.799Z,4.21
2019-02-25T08:20:39.727Z,4.26
2019-02-25T08:21:38.769Z,4.28
2019-02-25T08:22:38.753Z,4.32
2019-02-25T08:23:38.738Z,4.47
2019-02-25T08:24:38.727Z,4.51
2019-02-25T08:25:38.705Z,4.53
2019-02-25T08:26:38.696Z,4.58
2019-02-25T08:27:38.677Z,4.6
2019-02-25T08:28:38.657Z,4.66
2019-02-25T08:29:38.647Z,4.69
2019-02-25T08:30:38.625Z,4.84
2019-02-25T08:31:38.610Z,4.97
2019-02-25T08:32:38.347Z,4.91
2019-02-25T08:33:38.579Z,5.03
2019-02-25T08:34:38.558Z,5.1
2019-02-25T08:35:38.551Z,5.18
2019-02-25T08:36:40.000Z,5.18
2019-02-25T08:37:38.511Z,5.23
2019-02-25T08:38:38.271Z,5.31
2019-02-25T08:39:38.487Z,5.41
2019-02-25T08:40:38.469Z,5.41
2019-02-25T08:41:38.449Z,5.51
2019-02-25T08:42:38.189Z,5.62
2019-02-25T08:43:38.422Z,5.66
2019-02-25T08:44:38.404Z,5.7
2019-02-25T08:45:38.143Z,5.73
2019-02-25T08:46:38.377Z,5.73
2019-02-25T08:47:38.373Z,5.8
2019-02-25T08:48:38.353Z,5.81
2019-02-25T08:49:38.332Z,5.99
2019-02-25T08:50:38.319Z,5.87
2019-02-25T08:51:38.302Z,5.98
2019-02-25T08:52:38.281Z,5.96
2019-02-25T08:53:38.284Z,6.07
2019-02-25T08:54:38.010Z,6.13
2019-02-25T08:55:37.996Z,6.14
2019-02-25T08:56:38.226Z,6.26
2019-02-25T08:57:38.214Z,6.33
2019-02-25T08:58:38.204Z,6.39
2019-02-25T08:59:38.180Z,6.49
2019-02-25T09:00:38.171Z,6.49
2019-02-25T09:01:38.159Z,6.54
2019-02-25T09:02:38.136Z,6.6
2019-02-25T09:03:37.873Z,6.61
2019-02-25T09:04:38.105Z,6.65
2019-02-25T09:05:37.848Z,6.68
2019-02-25T09:06:38.082Z,6.8
2019-02-25T09:07:38.064Z,6.79
2019-02-25T09:08:38.059Z,6.88
2019-02-25T09:09:38.037Z,6.93
2019-02-25T09:10:37.775Z,6.88
2019-02-25T09:11:37.762Z,7.05
2019-02-25T09:12:37.997Z,7.04
2019-02-25T09:13:37.979Z,7.09
2019-02-25T09:14:37.966Z,7.15
2019-02-25T09:15:37.955Z,7.23
2019-02-25T09:16:37.940Z,7.22
2019-02-25T09:17:37.922Z,7.3
2019-02-25T09:18:37.666Z,7.29
2019-02-25T09:19:37.895Z,7.44
2019-02-25T09:20:37.675Z,7.47
2019-02-25T09:21:37.875Z,7.63
2019-02-25T09:22:37.854Z,7.59
2019-02-25T09:23:37.844Z,7.61
2019-02-25T09:24:37.825Z,7.82
2019-02-25T09:25:37.820Z,7.8
2019-02-25T09:26:37.798Z,7.95
2019-02-25T09:27:37.787Z,8.06
2019-02-25T09:28:37.770Z,8.16
2019-02-25T09:29:37.757Z,8.13
2019-02-25T09:30:37.748Z,8.29
2019-02-25T09:31:37.752Z,8.21
2019-02-25T09:32:37.717Z,8.32
2019-02-25T09:33:37.706Z,8.46
2019-02-25T09:34:37.694Z,8.46
2019-02-25T09:35:37.686Z,8.46
2019-02-25T09:36:37.669Z,8.52
2019-02-25T09:37:39.715Z,8.58
2019-02-25T09:38:37.645Z,8.53
2019-02-25T09:39:37.630Z,8.58
2019-02-25T09:40:37.364Z,8.62
2019-02-25T09:41:37.606Z,8.62
2019-02-25T09:42:37.592Z,8.76
2019-02-25T09:43:37.580Z,8.69
2019-02-25T09:44:38.047Z,8.68
2019-02-25T09:45:37.551Z,8.76
2019-02-25T09:46:37.543Z,8.74
2019-02-25T09:47:37.276Z,8.76
2019-02-25T09:48:37.508Z,8.85
2019-02-25T09:49:37.252Z,8.94
2019-02-25T09:50:37.490Z,9
2019-02-25T09:51:37.470Z,9.11
2019-02-25T09:52:37.458Z,9.04
2019-02-25T09:53:37.448Z,9
2019-02-25T09:54:37.431Z,9.08
2019-02-25T09:55:37.422Z,9.19
2019-02-25T09:56:37.486Z,9.24
2019-02-25T09:57:37.397Z,9.37
2019-02-25T09:58:37.386Z,9.39
2019-02-25T09:59:37.374Z,9.38
2019-02-25T10:00:37.120Z,9.45
2019-02-25T10:01:37.096Z,9.47
2019-02-25T10:02:37.337Z,9.52
2019-02-25T10:03:37.331Z,9.53
2019-02-25T10:04:37.316Z,9.48
2019-02-25T10:05:37.299Z,9.52
2019-02-25T10:06:37.059Z,9.53
2019-02-25T10:07:37.273Z,9.48
2019-02-25T10:08:37.261Z,9.45
2019-02-25T10:09:37.319Z,9.57
2019-02-25T10:10:36.990Z,9.57
2019-02-25T10:11:37.224Z,9.62
2019-02-25T10:12:37.211Z,9.67
2019-02-25T10:13:37.199Z,9.63
2019-02-25T10:14:37.197Z,9.77
2019-02-25T10:15:37.183Z,9.75
2019-02-25T10:16:36.920Z,9.75
2019-02-25T10:17:37.153Z,9.85
2019-02-25T10:18:37.148Z,9.95
2019-02-25T10:19:37.308Z,9.96
2019-02-25T10:20:37.123Z,9.99
2019-02-25T10:21:37.107Z,10.02
2019-02-25T10:22:37.634Z,9.99
2019-02-25T10:23:36.841Z,10.14
2019-02-25T10:24:37.068Z,10.29
2019-02-25T10:25:37.062Z,10.32
2019-02-25T10:26:37.053Z,10.31
2019-02-25T10:27:36.791Z,10.29
2019-02-25T10:28:37.024Z,10.36
2019-02-25T10:29:37.017Z,10.35
2019-02-25T10:30:37.001Z,10.39
2019-02-25T10:31:37.943Z,10.42
2019-02-25T10:32:36.977Z,10.46
2019-02-25T10:33:36.984Z,10.55
2019-02-25T10:34:36.952Z,10.51
2019-02-25T10:35:36.952Z,10.59
2019-02-25T10:36:36.933Z,10.63
2019-02-25T10:37:41.205Z,10.55
2019-02-25T10:38:37.520Z,10.55
2019-02-25T10:39:36.900Z,10.58
2019-02-25T10:40:36.889Z,10.72
2019-02-25T10:41:36.630Z,10.69
2019-02-25T10:42:40.215Z,10.63
2019-02-25T10:43:39.372Z,10.66
2019-02-25T10:44:40.567Z,10.66
2019-02-25T10:45:39.341Z,10.67
2019-02-25T10:46:38.495Z,10.72
2019-02-25T10:47:36.312Z,10.75
2019-02-25T10:48:36.801Z,10.69
2019-02-25T10:49:38.534Z,10.77
2019-02-25T10:50:41.476Z,10.73
2019-02-25T10:51:40.651Z,10.8
2019-02-25T10:52:38.608Z,10.88
2019-02-25T10:53:36.494Z,10.94
2019-02-25T10:54:36.731Z,10.98
2019-02-25T10:55:36.716Z,10.95
2019-02-25T10:56:36.707Z,11.02
2019-02-25T10:57:36.733Z,11.05
2019-02-25T10:58:40.204Z,11.08
2019-02-25T10:59:41.517Z,11.08
2019-02-25T11:00:39.866Z,11.13
2019-02-25T11:01:37.378Z,11.24
2019-02-25T11:02:43.962Z,11.24
2019-02-25T11:03:36.635Z,11.33
2019-02-25T11:04:36.626Z,11.35
2019-02-25T11:05:36.623Z,11.27
2019-02-25T11:06:40.348Z,11.42
2019-02-25T11:07:42.058Z,11.28
2019-02-25T11:08:39.402Z,11.48
2019-02-25T11:09:36.568Z,11.33
2019-02-25T11:10:36.561Z,11.48
2019-02-25T11:11:36.545Z,11.48
2019-02-25T11:12:36.958Z,11.56
2019-02-25T11:13:39.162Z,11.48
2019-02-25T11:14:43.438Z,11.53
2019-02-25T11:15:37.387Z,11.48
2019-02-25T11:16:36.488Z,11.6
2019-02-25T11:17:36.485Z,11.57
2019-02-25T11:18:36.489Z,11.6
2019-02-25T11:19:37.767Z,11.68
2019-02-25T11:20:40.168Z,11.67
2019-02-25T11:21:42.042Z,11.67
2019-02-25T11:22:37.985Z,11.66
2019-02-25T11:23:36.170Z,11.82
2019-02-25T11:24:36.409Z,11.79
2019-02-25T11:25:36.148Z,11.86
2019-02-25T11:26:39.345Z,11.75
2019-02-25T11:27:42.028Z,11.82
2019-02-25T11:28:41.156Z,11.91
2019-02-25T11:29:37.770Z,11.91
2019-02-25T11:30:36.346Z,11.91
2019-02-25T11:31:36.334Z,11.94
2019-02-25T11:32:36.329Z,12.03
2019-02-25T11:33:38.730Z,11.98
2019-02-25T11:34:40.069Z,12.03
2019-02-25T11:35:38.798Z,12
2019-02-25T11:36:36.283Z,12.04
2019-02-25T11:37:36.278Z,12.03
2019-02-25T11:38:41.801Z,12.05
2019-02-25T11:39:39.633Z,12.1
2019-02-25T11:40:40.809Z,12.1
2019-02-25T11:41:41.151Z,12.01
2019-02-25T11:42:35.973Z,12
2019-02-25T11:43:36.248Z,11.98
2019-02-25T11:44:36.202Z,12.08
2019-02-25T11:45:36.459Z,12.04
2019-02-25T11:46:36.186Z,12.1
2019-02-25T11:47:36.180Z,12.08
2019-02-25T11:48:36.166Z,12.05
2019-02-25T11:49:36.153Z,12.16
2019-02-25T11:50:35.898Z,12.18
2019-02-25T11:51:36.140Z,12.18
2019-02-25T11:52:36.121Z,12.22
2019-02-25T11:53:36.112Z,12.29
2019-02-25T11:54:36.105Z,12.38
2019-02-25T11:55:36.095Z,12.4
2019-02-25T11:56:35.842Z,12.44
2019-02-25T11:57:36.074Z,12.44
2019-02-25T11:58:36.071Z,12.53
2019-02-25T11:59:36.086Z,12.55
2019-02-25T12:00:36.047Z,12.52
2019-02-25T12:01:36.037Z,12.62
2019-02-25T12:02:35.780Z,12.56
2019-02-25T12:03:35.771Z,12.53
2019-02-25T12:04:36.005Z,12.62
2019-02-25T12:05:35.996Z,12.71
2019-02-25T12:06:35.988Z,12.66
2019-02-25T12:07:35.978Z,12.73
2019-02-25T12:08:35.967Z,12.65
2019-02-25T12:09:35.960Z,12.7
2019-02-25T12:10:35.949Z,12.61
2019-02-25T12:11:35.939Z,12.65
2019-02-25T12:12:35.930Z,12.61
2019-02-25T12:13:35.919Z,12.59
2019-02-25T12:14:35.911Z,12.58
2019-02-25T12:15:35.898Z,12.55
2019-02-25T12:16:35.892Z,12.53
2019-02-25T12:17:35.880Z,12.61
2019-02-25T12:18:35.916Z,12.62
2019-02-25T12:19:35.868Z,12.69
2019-02-25T12:20:35.606Z,12.65
2019-02-25T12:21:35.840Z,12.66
2019-02-25T12:22:35.836Z,12.71
2019-02-25T12:23:35.825Z,12.69
2019-02-25T12:24:35.815Z,12.63
2019-02-25T12:25:35.557Z,12.61
2019-02-25T12:26:35.799Z,12.69
2019-02-25T12:27:35.786Z,12.58
2019-02-25T12:28:35.777Z,12.62
2019-02-25T12:29:35.975Z,12.69
2019-02-25T12:30:35.758Z,12.53
2019-02-25T12:31:35.750Z,12.63
2019-02-25T12:32:35.493Z,12.59
2019-02-25T12:33:35.736Z,12.55
2019-02-25T12:34:35.720Z,12.65
2019-02-25T12:35:35.717Z,12.53
2019-02-25T12:36:35.711Z,12.63
2019-02-25T12:37:35.696Z,12.56
2019-02-25T12:38:35.691Z,12.61
2019-02-25T12:39:35.683Z,12.43
2019-02-25T12:40:35.662Z,12.41
2019-02-25T12:41:35.657Z,12.45
2019-02-25T12:42:35.401Z,12.44
2019-02-25T12:43:35.641Z,12.38
2019-02-25T12:44:35.626Z,12.45
2019-02-25T12:45:35.371Z,12.52
2019-02-25T12:46:35.638Z,12.56
2019-02-25T12:47:35.600Z,12.43
2019-02-25T12:48:35.590Z,12.44
2019-02-25T12:49:35.647Z,12.43
2019-02-25T12:50:35.569Z,12.47
2019-02-25T12:51:35.565Z,12.4
2019-02-25T12:52:35.806Z,12.45
2019-02-25T12:53:37.642Z,12.43
2019-02-25T12:54:35.538Z,12.53
2019-02-25T12:55:35.534Z,12.51
2019-02-25T12:56:35.519Z,12.4
2019-02-25T12:57:35.314Z,12.43
2019-02-25T12:58:35.511Z,12.53
2019-02-25T12:59:35.496Z,12.44
2019-02-25T13:00:35.487Z,12.51
2019-02-25T13:01:35.470Z,12.45
2019-02-25T13:02:35.463Z,12.55
2019-02-25T13:03:35.206Z,12.58
2019-02-25T13:04:35.205Z,12.55
2019-02-25T13:05:35.437Z,12.51
2019-02-25T13:06:35.433Z,12.55
2019-02-25T13:07:35.420Z,12.58
2019-02-25T13:08:35.424Z,12.53